This demonstration page uses our WeatherBlox Daily Observations layout. Learn more.

38.88101, -77.10428

Hourly Observations for November 13, 2016

Temp ( °F °C ) Dew Point ( °F °C ) Humidity (%) Winds ( mph kmh ) Pressure ( in mb ) Visibility ( mi km ) Precip ( " mm )
12:52 am 00:52 Clear 38 3.3 28 -2.2 68 68 S 6 9 30.3 1026 10 16.09344 0 0
1:52 am 01:52 Mostly Clear 38 3.3 28 -2.2 68 68 S 6 9 30.3 1026 10 16.09344 0 0
2:52 am 02:52 Clear 38 3.3 27 -2.8 65 65 SSW 3 6 30.3 1026 10 16.09344 0 0
3:52 am 03:52 Clear 38 3.3 27 -2.8 65 65 SSW 6 9 30.27 1025 10 16.09344 0 0
4:52 am 04:52 Clear 35 1.7 28 -2.2 76 76 SSW 7 11 30.27 1025 10 16.09344 0 0
5:52 am 05:52 Clear 35 1.7 27 -2.8 72 72 SSW 6 9 30.27 1025 10 16.09344 0 0
6:52 am 06:52 Mostly Sunny 34 1.1 27 -2.8 76 76 SSW 6 9 30.27 1025 10 16.09344 0 0
7:52 am 07:52 Sunny 37 2.8 28 -2.2 70 70 S 3 6 30.3 1026 10 16.09344 0 0
8:52 am 08:52 Sunny 43 6.1 30 -1.1 60 60 Calm 30.3 1026 10 16.09344 0 0
9:52 am 09:52 Mostly Sunny 47 8.3 32 0 56 56 SSE 6 9 30.3 1026 10 16.09344 0 0
10:52 am 10:52 Mostly Sunny 51 10.6 30 -1.1 44 44 ESE 5 7 30.27 1025 10 16.09344 0 0
11:52 am 11:52 Mostly Sunny 55 12.8 29 -1.7 37 37 SSE 5 7 30.24 1024 10 16.09344 0 0
12:52 pm 12:52 Sunny 59 15 30 -1.1 33 33 SSE 6 9 30.21 1023 10 16.09344 0 0
1:52 pm 13:52 Sunny 61 16.1 25 -3.9 25 25 Calm 30.18 1022 10 16.09344 0 0
2:52 pm 14:52 Sunny 62 16.7 31 -0.6 31 31 S 9 15 30.18 1022 10 16.09344 0 0
3:52 pm 15:52 Sunny 60 15.6 34 1.1 38 38 S 9 15 30.15 1021 10 16.09344 0 0
4:52 pm 16:52 Sunny 57 13.9 37 2.8 47 47 S 8 13 30.15 1021 10 16.09344 0 0
5:52 pm 17:52 Clear 56 13.3 27 -2.8 33 33 WSW 5 7 30.15 1021 10 16.09344 0 0
6:52 pm 18:52 Clear 51 10.6 39 3.9 64 64 S 6 9 30.15 1021 10 16.09344 0 0
7:52 pm 19:52 Clear 50 10 40 4.4 68 68 SSW 6 9 30.15 1021 10 16.09344 0 0
8:52 pm 20:52 Clear 48 8.9 37 2.8 66 66 SSW 6 9 30.15 1021 10 16.09344 0 0
9:52 pm 21:52 Clear 45 7.2 37 2.8 74 74 S 6 9 30.15 1021 10 16.09344 0 0
10:52 pm 22:52 Clear 45 7.2 37 2.8 74 74 SSW 7 11 30.15 1021 10 16.09344 0 0
11:52 pm 23:52 Clear 44 6.7 38 3.3 79 79 SSW 6 9 30.15 1021 10 16.09344 0 0

Powered by AerisWeather